Flight Track Log - Related Links

Times and Time Zones

All times are in EDT time to prevent confusion due to time zone crossing. See the ASA238 flight status page for this flight to view local times or setup timezone preferences in your user account.

Time Position Orientation Groundspeed Altitude Reporting Facility
EDT Latitude Longitude Course Direction KTS MPH feet Rate Location/Type
Wed 03:30:26 PM 32.7500 -117.2333 287° West 172 198 1,700  Level Southern California TRACON
Wed 03:31:25 PM 32.7667 -117.3000 287° West 227 261 4,200 2,500 Climbing Southern California TRACON
Wed 03:32:26 PM 32.7000 -117.3167 192° South 255 293 6,700 2,604 Climbing Southern California TRACON
Wed 03:33:11 PM 32.6675 -117.2969 153° Southeast 247 284 8,800 3,196 Climbing Los Angeles Center
Wed 03:34:13 PM 32.5894 -117.2442 150° Southeast 265 305 12,400 3,450 Climbing Los Angeles Center
Wed 03:34:31 PM 32.5667 -117.2333 158° South 289 333 13,400 3,190 Climbing Southern California TRACON
Wed 03:35:32 PM 32.5000 -117.1833 148° Southeast 292 336 16,600 2,627 Climbing Southern California TRACON
Wed 03:37:20 PM 32.3711 -117.1039 152° Southeast 305 351 20,800 2,365 Climbing Los Angeles Center
Wed 03:38:22 PM 32.2914 -117.0533 152° Southeast 320 368 23,300 2,371 Climbing Los Angeles Center
Wed 03:39:24 PM 32.1939 -116.9911 152° Southeast 330 380 25,700 2,032 Climbing Los Angeles Center
Wed 03:40:26 PM 32.1089 -116.9361 151° Southeast 344 396 27,500 1,597 Climbing Los Angeles Center
Wed 03:41:28 PM 32.0197 -116.8792 152° Southeast 360 414 29,000 1,452 Climbing Los Angeles Center
Wed 03:42:30 PM 31.9292 -116.8214 152° Southeast 369 425 30,500 1,258 Climbing Los Angeles Center
Wed 03:43:32 PM 31.8339 -116.7606 152° Southeast 385 443 31,600 1,248 Climbing Los Angeles Center
Wed 03:44:35 PM 31.7375 -116.6986 151° Southeast 393 452 33,100 1,584 Climbing Los Angeles Center
Wed 03:45:37 PM 31.6217 -116.6283 153° Southeast 393 452 34,900 1,742 Climbing Los Angeles Center
Wed 03:47:00 PM 31.4882 -116.5347 149° Southeast  Level FlightAware Approximate
Wed 03:54:00 PM 30.7995 -116.0943 157° South  Level FlightAware Approximate
Wed 03:55:00 PM 30.6958 -116.0442 157° South  Level FlightAware Approximate
Wed 03:56:00 PM 30.5919 -115.9942 157° South  Level FlightAware Approximate
Wed 03:57:00 PM 30.4911 -115.9391 133° Southeast  Level FlightAware Approximate
Wed 03:58:00 PM 30.4139 -115.8445 133° Southeast  Level FlightAware Approximate
Wed 03:59:00 PM 30.3365 -115.7500 133° Southeast  Level FlightAware Approximate
Wed 04:00:00 PM 30.2591 -115.6557 134° Southeast  Level FlightAware Approximate
Wed 04:01:00 PM 30.1816 -115.5615 134° Southeast  Level FlightAware Approximate
Wed 04:02:00 PM 30.1040 -115.4675 134° Southeast  Level FlightAware Approximate
Wed 04:03:00 PM 30.0264 -115.3736 134° Southeast  Level FlightAware Approximate
Wed 04:04:00 PM 29.9487 -115.2798 134° Southeast  Level FlightAware Approximate
Wed 04:05:00 PM 29.8710 -115.1862 134° Southeast  Level FlightAware Approximate
Wed 04:06:00 PM 29.7932 -115.0928 134° Southeast  Level FlightAware Approximate
Wed 04:07:00 PM 29.7153 -114.9995 134° Southeast  Level FlightAware Approximate
Wed 04:08:00 PM 29.6373 -114.9063 134° Southeast  Level FlightAware Approximate
Wed 04:09:00 PM 29.5593 -114.8133 134° Southeast  Level FlightAware Approximate
Wed 04:10:00 PM 29.4812 -114.7204 134° Southeast  Level FlightAware Approximate
Wed 04:11:00 PM 29.4035 -114.6272 134° Southeast  Level FlightAware Approximate
Wed 04:12:00 PM 29.3261 -114.5338 134° Southeast  Level FlightAware Approximate
Wed 04:13:00 PM 29.2485 -114.4405 134° Southeast  Level FlightAware Approximate
Wed 04:14:00 PM 29.1709 -114.3474 134° Southeast  Level FlightAware Approximate
Wed 04:15:00 PM 29.0933 -114.2544 134° Southeast  Level FlightAware Approximate
Wed 04:16:00 PM 29.0156 -114.1615 134° Southeast  Level FlightAware Approximate
Wed 04:17:00 PM 28.9375 -114.0692 135° Southeast  Level FlightAware Approximate
Wed 04:18:00 PM 28.8574 -113.9791 135° Southeast  Level FlightAware Approximate
Wed 04:19:00 PM 28.7773 -113.8892 135° Southeast  Level FlightAware Approximate
Wed 04:20:00 PM 28.6971 -113.7994 136° Southeast  Level FlightAware Approximate
Wed 04:21:00 PM 28.6168 -113.7098 136° Southeast  Level FlightAware Approximate
Wed 04:22:00 PM 28.5365 -113.6203 136° Southeast  Level FlightAware Approximate
Wed 04:23:00 PM 28.4561 -113.5309 136° Southeast  Level FlightAware Approximate
Wed 04:24:00 PM 28.3757 -113.4417 136° Southeast  Level FlightAware Approximate
Wed 04:25:00 PM 28.2952 -113.3525 136° Southeast  Level FlightAware Approximate
Wed 04:26:00 PM 28.2147 -113.2636 136° Southeast  Level FlightAware Approximate
Wed 04:27:00 PM 28.1341 -113.1747 136° Southeast  Level FlightAware Approximate
Wed 04:28:00 PM 28.0534 -113.0860 136° Southeast  Level FlightAware Approximate
Wed 04:29:00 PM 27.9727 -112.9975 136° Southeast  Level FlightAware Approximate
Wed 04:30:00 PM 27.8920 -112.9090 136° Southeast  Level FlightAware Approximate
Wed 04:31:00 PM 27.8111 -112.8207 136° Southeast  Level FlightAware Approximate
Wed 04:32:00 PM 27.7303 -112.7326 136° Southeast  Level FlightAware Approximate
Wed 04:33:00 PM 27.6493 -112.6445 136° Southeast  Level FlightAware Approximate
Wed 04:34:00 PM 27.5683 -112.5566 136° Southeast  Level FlightAware Approximate
Wed 04:35:00 PM 27.4873 -112.4688 136° Southeast  Level FlightAware Approximate
Wed 04:36:00 PM 27.4062 -112.3812 136° Southeast  Level FlightAware Approximate
Wed 04:37:00 PM 27.3250 -112.2936 136° Southeast  Level FlightAware Approximate
Wed 04:38:00 PM 27.2332 -112.2221 149° Southeast  Level FlightAware Approximate
Wed 04:39:00 PM 27.1367 -112.1572 148° Southeast  Level FlightAware Approximate
Wed 04:40:00 PM 27.0418 -112.0896 148° Southeast  Level FlightAware Approximate
Wed 04:41:00 PM 26.9469 -112.0221 148° Southeast  Level FlightAware Approximate
Wed 04:42:00 PM 26.8519 -111.9548 148° Southeast  Level FlightAware Approximate
Wed 04:43:00 PM 26.7569 -111.8875 148° Southeast  Level FlightAware Approximate
Wed 04:44:00 PM 26.6619 -111.8204 148° Southeast  Level FlightAware Approximate
Wed 04:45:00 PM 26.5668 -111.7534 148° Southeast  Level FlightAware Approximate
Wed 04:46:00 PM 26.4717 -111.6865 148° Southeast  Level FlightAware Approximate
Wed 04:47:00 PM 26.3766 -111.6197 148° Southeast  Level FlightAware Approximate
Wed 04:48:00 PM 26.2814 -111.5530 148° Southeast  Level FlightAware Approximate
Wed 04:49:00 PM 26.1862 -111.4864 148° Southeast  Level FlightAware Approximate
Wed 04:50:00 PM 26.0910 -111.4199 148° Southeast  Level FlightAware Approximate
Wed 04:51:00 PM 25.9958 -111.3536 148° Southeast  Level FlightAware Approximate
Wed 04:52:00 PM 25.9169 -111.2664 130° Southeast  Level FlightAware Approximate
Wed 04:53:00 PM 25.8452 -111.1703 130° Southeast  Level FlightAware Approximate
Wed 04:54:00 PM 25.7735 -111.0742 130° Southeast  Level FlightAware Approximate
Wed 04:55:00 PM 25.7016 -110.9782 130° Southeast  Level FlightAware Approximate
Wed 04:56:00 PM 25.6297 -110.8824 130° Southeast  Level FlightAware Approximate
Wed 04:57:00 PM 25.5578 -110.7867 130° Southeast  Level FlightAware Approximate
Wed 04:58:00 PM 25.4858 -110.6911 130° Southeast  Level FlightAware Approximate
Wed 04:59:00 PM 25.4137 -110.5956 130° Southeast  Level FlightAware Approximate
Wed 05:00:00 PM 25.3417 -110.5001 130° Southeast  Level FlightAware Approximate
Wed 05:01:00 PM 25.2690 -110.4053 131° Southeast  Level FlightAware Approximate
Wed 05:02:00 PM 25.1959 -110.3110 129° Southeast  Level FlightAware Approximate
Wed 05:03:00 PM 25.1249 -110.2148 129° Southeast  Level FlightAware Approximate
Wed 05:04:00 PM 25.0539 -110.1186 129° Southeast  Level FlightAware Approximate
Wed 05:05:00 PM 24.9828 -110.0226 129° Southeast  Level FlightAware Approximate
Wed 05:06:00 PM 24.9116 -109.9266 130° Southeast  Level FlightAware Approximate
Wed 05:07:00 PM 24.8390 -109.8321 131° Southeast  Level FlightAware Approximate
Wed 05:08:00 PM 24.7594 -109.7455 150° Southeast  Level FlightAware Approximate
Wed 05:09:00 PM 24.6617 -109.6844 150° Southeast  Level FlightAware Approximate
Wed 05:10:00 PM 24.5685 -109.6156 144° Southeast  Level FlightAware Approximate
Wed 05:11:00 PM 24.4771 -109.5438 144° Southeast  Level FlightAware Approximate
Wed 05:12:00 PM 24.3849 -109.4733 149° Southeast  Level FlightAware Approximate
Wed 05:13:00 PM 24.2873 -109.4200 193° South  Level FlightAware Approximate
Wed 05:14:00 PM 24.1780 -109.4486 193° South  Level FlightAware Approximate
Wed 05:15:00 PM 24.0687 -109.4771 193° South  Level FlightAware Approximate
Wed 05:16:00 PM 23.9593 -109.5056 193° South  Level FlightAware Approximate
Wed 05:17:00 PM 23.8492 -109.5280 191° South  Level FlightAware Approximate
Wed 05:18:00 PM 23.7393 -109.5536 197° South  Level FlightAware Approximate
Wed 05:19:00 PM 23.6319 -109.5894 197° South  Level FlightAware Approximate
Wed 05:20:00 PM 23.5236 -109.6219 190° South  Level FlightAware Approximate
Wed 05:21:00 PM 23.4131 -109.6441 190° South  Level FlightAware Approximate
Wed 05:22:00 PM 23.3035 -109.6667 180° South  Level FlightAware Approximate
Wed 05:23:00 PM 23.1969 -109.7039 190° South  Level FlightAware Approximate
Wed 05:24:00 PM 23.1518 -109.7210 190° South  Level Estimated
Wed 05:25:00 PM 23.1518 -109.7210 190° South  Level Estimated
Wed 05:26:00 PM 23.1518 -109.7210 190° South  Level Estimated
Wed 05:27:00 PM 23.1518 -109.7210 190° South  Level Estimated
Wed 05:28:00 PM 23.1518 -109.7210 190° South  Level Estimated
Wed 05:29:00 PM 23.1518 -109.7210 190° South  Level Estimated
Wed 05:30:00 PM 23.1518 -109.7210 190° South  Level Estimated
Wed 05:31:00 PM 23.1518 -109.7210 190° South  Level Estimated
Wed 05:32:00 PM 23.1518 -109.7210 190° South  Level Estimated
Wed 05:33:00 PM 23.1518 -109.7210 190° South  Level Estimated
Wed 05:34:00 PM 23.1518 -109.7210 190° South  Level Estimated
Wed 05:35:00 PM 23.1518 -109.7210 190° South  Level Estimated
Wed 05:36:00 PM 23.1518 -109.7210 190° South  Level Estimated

Login

Don't have an account? Register now (free) for customized features, flight alerts, and more!